sensor_id;sensor_type;location;lat;lon;timestamp;temperature;humidity
20481;DHT22;10399;50.754;3.366;2024-03-08T00:00:07;7.70;99.90
20481;DHT22;10399;50.754;3.366;2024-03-08T00:02:45;7.70;99.90
20481;DHT22;10399;50.754;3.366;2024-03-08T00:05:13;7.80;99.90
20481;DHT22;10399;50.754;3.366;2024-03-08T00:07:41;7.90;99.90
20481;DHT22;10399;50.754;3.366;2024-03-08T00:10:11;7.90;99.90
20481;DHT22;10399;50.754;3.366;2024-03-08T00:12:42;7.80;99.90
20481;DHT22;10399;50.754;3.366;2024-03-08T00:15:14;7.70;99.90
20481;DHT22;10399;50.754;3.366;2024-03-08T00:17:44;7.70;99.90
20481;DHT22;10399;50.754;3.366;2024-03-08T00:20:12;7.70;99.90
20481;DHT22;10399;50.754;3.366;2024-03-08T00:22:40;7.70;99.90
20481;DHT22;10399;50.754;3.366;2024-03-08T00:25:08;7.60;99.90
20481;DHT22;10399;50.754;3.366;2024-03-08T00:27:39;7.70;99.90
20481;DHT22;10399;50.754;3.366;2024-03-08T00:30:06;7.70;99.90
20481;DHT22;10399;50.754;3.366;2024-03-08T00:32:34;7.60;99.90
20481;DHT22;10399;50.754;3.366;2024-03-08T00:35:02;7.60;99.90
20481;DHT22;10399;50.754;3.366;2024-03-08T00:37:29;7.60;99.90
20481;DHT22;10399;50.754;3.366;2024-03-08T00:39:56;7.60;99.90
20481;DHT22;10399;50.754;3.366;2024-03-08T00:42:23;7.50;99.90
20481;DHT22;10399;50.754;3.366;2024-03-08T00:44:51;7.60;99.90
20481;DHT22;10399;50.754;3.366;2024-03-08T00:47:19;7.60;99.90
20481;DHT22;10399;50.754;3.366;2024-03-08T00:49:46;7.50;99.90
20481;DHT22;10399;50.754;3.366;2024-03-08T00:52:13;7.60;99.90
20481;DHT22;10399;50.754;3.366;2024-03-08T00:54:41;7.50;99.90
20481;DHT22;10399;50.754;3.366;2024-03-08T00:57:10;7.50;99.90
20481;DHT22;10399;50.754;3.366;2024-03-08T00:59:39;7.40;99.90
20481;DHT22;10399;50.754;3.366;2024-03-08T01:02:06;7.40;99.90
20481;DHT22;10399;50.754;3.366;2024-03-08T01:04:33;7.30;99.90
20481;DHT22;10399;50.754;3.366;2024-03-08T01:07:00;7.20;99.90
20481;DHT22;10399;50.754;3.366;2024-03-08T01:09:27;7.20;99.90
20481;DHT22;10399;50.754;3.366;2024-03-08T01:11:55;7.40;99.90
20481;DHT22;10399;50.754;3.366;2024-03-08T01:14:23;7.40;99.90
20481;DHT22;10399;50.754;3.366;2024-03-08T01:16:50;7.20;99.90
20481;DHT22;10399;50.754;3.366;2024-03-08T01:19:17;7.20;99.90
20481;DHT22;10399;50.754;3.366;2024-03-08T01:21:45;7.10;99.90
20481;DHT22;10399;50.754;3.366;2024-03-08T01:24:12;7.10;99.90
20481;DHT22;10399;50.754;3.366;2024-03-08T01:26:39;7.20;99.90
20481;DHT22;10399;50.754;3.366;2024-03-08T01:29:06;7.10;99.90
20481;DHT22;10399;50.754;3.366;2024-03-08T01:31:33;7.20;99.90
20481;DHT22;10399;50.754;3.366;2024-03-08T01:34:00;7.00;99.90
20481;DHT22;10399;50.754;3.366;2024-03-08T01:36:27;7.00;99.90
20481;DHT22;10399;50.754;3.366;2024-03-08T01:38:54;6.90;99.90
20481;DHT22;10399;50.754;3.366;2024-03-08T01:41:21;6.90;99.90
20481;DHT22;10399;50.754;3.366;2024-03-08T01:43:48;6.80;99.90
20481;DHT22;10399;50.754;3.366;2024-03-08T01:46:19;6.80;99.90
20481;DHT22;10399;50.754;3.366;2024-03-08T01:48:49;6.80;99.90
20481;DHT22;10399;50.754;3.366;2024-03-08T01:51:18;6.70;99.90
20481;DHT22;10399;50.754;3.366;2024-03-08T01:53:47;6.90;99.90
20481;DHT22;10399;50.754;3.366;2024-03-08T01:56:14;6.80;99.90
20481;DHT22;10399;50.754;3.366;2024-03-08T01:58:42;6.80;99.90
20481;DHT22;10399;50.754;3.366;2024-03-08T02:01:15;6.80;99.90
20481;DHT22;10399;50.754;3.366;2024-03-08T02:03:43;6.70;99.90
20481;DHT22;10399;50.754;3.366;2024-03-08T02:06:12;6.70;99.90
20481;DHT22;10399;50.754;3.366;2024-03-08T02:08:45;6.60;99.90
20481;DHT22;10399;50.754;3.366;2024-03-08T02:11:14;6.60;99.90
20481;DHT22;10399;50.754;3.366;2024-03-08T02:13:42;6.50;99.90
20481;DHT22;10399;50.754;3.366;2024-03-08T02:16:10;6.60;99.90
20481;DHT22;10399;50.754;3.366;2024-03-08T02:18:37;6.60;99.90
20481;DHT22;10399;50.754;3.366;2024-03-08T02:21:07;6.70;99.90
20481;DHT22;10399;50.754;3.366;2024-03-08T02:23:35;6.60;99.90
20481;DHT22;10399;50.754;3.366;2024-03-08T02:26:04;6.50;99.90
20481;DHT22;10399;50.754;3.366;2024-03-08T02:28:32;6.30;99.90
20481;DHT22;10399;50.754;3.366;2024-03-08T02:30:59;6.30;99.90
20481;DHT22;10399;50.754;3.366;2024-03-08T02:33:27;6.40;99.90
20481;DHT22;10399;50.754;3.366;2024-03-08T02:35:55;6.40;99.90
20481;DHT22;10399;50.754;3.366;2024-03-08T02:38:24;6.20;99.90
20481;DHT22;10399;50.754;3.366;2024-03-08T02:40:53;6.30;99.90
20481;DHT22;10399;50.754;3.366;2024-03-08T02:43:21;6.20;99.90
20481;DHT22;10399;50.754;3.366;2024-03-08T02:45:49;6.30;99.90
20481;DHT22;10399;50.754;3.366;2024-03-08T02:48:16;6.30;99.90
20481;DHT22;10399;50.754;3.366;2024-03-08T02:50:44;6.20;99.90
20481;DHT22;10399;50.754;3.366;2024-03-08T02:53:13;6.30;99.90
20481;DHT22;10399;50.754;3.366;2024-03-08T02:55:41;6.30;99.90
20481;DHT22;10399;50.754;3.366;2024-03-08T02:58:09;6.10;99.90
20481;DHT22;10399;50.754;3.366;2024-03-08T03:00:38;6.10;99.90
20481;DHT22;10399;50.754;3.366;2024-03-08T03:03:08;6.20;99.90
20481;DHT22;10399;50.754;3.366;2024-03-08T03:05:35;6.00;99.90
20481;DHT22;10399;50.754;3.366;2024-03-08T03:08:03;6.00;99.90
20481;DHT22;10399;50.754;3.366;2024-03-08T03:10:36;6.20;99.90
20481;DHT22;10399;50.754;3.366;2024-03-08T03:13:03;6.20;99.90
20481;DHT22;10399;50.754;3.366;2024-03-08T03:15:33;6.10;99.90
20481;DHT22;10399;50.754;3.366;2024-03-08T03:18:04;6.00;99.90
20481;DHT22;10399;50.754;3.366;2024-03-08T03:20:35;5.90;99.90
20481;DHT22;10399;50.754;3.366;2024-03-08T03:23:08;5.90;99.90
20481;DHT22;10399;50.754;3.366;2024-03-08T03:25:36;6.00;99.90
20481;DHT22;10399;50.754;3.366;2024-03-08T03:28:05;6.00;99.90
20481;DHT22;10399;50.754;3.366;2024-03-08T03:30:34;6.20;99.90
20481;DHT22;10399;50.754;3.366;2024-03-08T03:33:02;6.00;99.90
20481;DHT22;10399;50.754;3.366;2024-03-08T03:35:34;6.10;99.90
20481;DHT22;10399;50.754;3.366;2024-03-08T03:38:04;6.00;99.90
20481;DHT22;10399;50.754;3.366;2024-03-08T03:40:38;6.00;99.90
20481;DHT22;10399;50.754;3.366;2024-03-08T03:43:06;5.90;99.90
20481;DHT22;10399;50.754;3.366;2024-03-08T03:45:33;6.10;99.90
20481;DHT22;10399;50.754;3.366;2024-03-08T03:48:05;6.10;99.90
20481;DHT22;10399;50.754;3.366;2024-03-08T03:50:34;6.10;99.90
20481;DHT22;10399;50.754;3.366;2024-03-08T03:53:03;6.10;99.90
20481;DHT22;10399;50.754;3.366;2024-03-08T03:55:31;6.00;99.90
20481;DHT22;10399;50.754;3.366;2024-03-08T03:57:58;5.90;99.90
20481;DHT22;10399;50.754;3.366;2024-03-08T04:00:28;5.90;99.90
20481;DHT22;10399;50.754;3.366;2024-03-08T04:02:55;5.90;99.90
20481;DHT22;10399;50.754;3.366;2024-03-08T04:05:26;5.90;99.90
20481;DHT22;10399;50.754;3.366;2024-03-08T04:07:53;5.90;99.90
20481;DHT22;10399;50.754;3.366;2024-03-08T04:10:20;6.00;99.90
20481;DHT22;10399;50.754;3.366;2024-03-08T04:12:47;6.00;99.90
20481;DHT22;10399;50.754;3.366;2024-03-08T04:15:14;6.00;99.90
20481;DHT22;10399;50.754;3.366;2024-03-08T04:17:42;6.00;99.90
20481;DHT22;10399;50.754;3.366;2024-03-08T04:20:09;5.90;99.90
20481;DHT22;10399;50.754;3.366;2024-03-08T04:22:37;6.00;99.90
20481;DHT22;10399;50.754;3.366;2024-03-08T04:25:06;6.00;99.90
20481;DHT22;10399;50.754;3.366;2024-03-08T04:27:34;6.00;99.90
20481;DHT22;10399;50.754;3.366;2024-03-08T04:30:02;5.90;99.90
20481;DHT22;10399;50.754;3.366;2024-03-08T04:32:30;5.90;99.90
20481;DHT22;10399;50.754;3.366;2024-03-08T04:35:00;5.90;99.90
20481;DHT22;10399;50.754;3.366;2024-03-08T04:37:30;5.90;99.90
20481;DHT22;10399;50.754;3.366;2024-03-08T04:39:58;5.70;99.90
20481;DHT22;10399;50.754;3.366;2024-03-08T04:42:27;5.80;99.90
20481;DHT22;10399;50.754;3.366;2024-03-08T04:44:55;5.70;99.90
20481;DHT22;10399;50.754;3.366;2024-03-08T04:47:22;5.70;99.90
20481;DHT22;10399;50.754;3.366;2024-03-08T04:49:50;5.50;99.90
20481;DHT22;10399;50.754;3.366;2024-03-08T04:52:17;5.80;99.90
20481;DHT22;10399;50.754;3.366;2024-03-08T04:54:44;5.80;99.90
20481;DHT22;10399;50.754;3.366;2024-03-08T04:57:11;5.60;99.90
20481;DHT22;10399;50.754;3.366;2024-03-08T04:59:38;5.70;99.90
20481;DHT22;10399;50.754;3.366;2024-03-08T05:02:05;5.60;99.90
20481;DHT22;10399;50.754;3.366;2024-03-08T05:04:34;5.60;99.90
20481;DHT22;10399;50.754;3.366;2024-03-08T05:07:01;5.60;99.90
20481;DHT22;10399;50.754;3.366;2024-03-08T05:09:29;5.70;99.90
20481;DHT22;10399;50.754;3.366;2024-03-08T05:11:59;5.60;99.90
20481;DHT22;10399;50.754;3.366;2024-03-08T05:14:26;5.70;99.90
20481;DHT22;10399;50.754;3.366;2024-03-08T05:16:53;5.70;99.90
20481;DHT22;10399;50.754;3.366;2024-03-08T05:19:20;5.70;99.90
20481;DHT22;10399;50.754;3.366;2024-03-08T05:21:49;5.80;99.90
20481;DHT22;10399;50.754;3.366;2024-03-08T05:24:17;5.80;99.90
20481;DHT22;10399;50.754;3.366;2024-03-08T05:26:46;5.80;99.90
20481;DHT22;10399;50.754;3.366;2024-03-08T05:29:14;5.70;99.90
20481;DHT22;10399;50.754;3.366;2024-03-08T05:31:49;5.50;99.90
20481;DHT22;10399;50.754;3.366;2024-03-08T05:34:17;5.60;99.90
20481;DHT22;10399;50.754;3.366;2024-03-08T05:36:46;5.60;99.90
20481;DHT22;10399;50.754;3.366;2024-03-08T05:39:13;5.50;99.90
20481;DHT22;10399;50.754;3.366;2024-03-08T05:41:41;5.40;99.90
20481;DHT22;10399;50.754;3.366;2024-03-08T05:44:10;5.50;99.90
20481;DHT22;10399;50.754;3.366;2024-03-08T05:46:37;5.60;99.90
20481;DHT22;10399;50.754;3.366;2024-03-08T05:49:05;5.70;99.90
20481;DHT22;10399;50.754;3.366;2024-03-08T05:51:33;5.50;99.90
20481;DHT22;10399;50.754;3.366;2024-03-08T05:54:08;5.60;99.90
20481;DHT22;10399;50.754;3.366;2024-03-08T05:56:42;5.50;99.90
20481;DHT22;10399;50.754;3.366;2024-03-08T05:59:11;5.40;99.90
20481;DHT22;10399;50.754;3.366;2024-03-08T06:01:38;5.30;99.90
20481;DHT22;10399;50.754;3.366;2024-03-08T06:04:08;5.40;99.90
20481;DHT22;10399;50.754;3.366;2024-03-08T06:06:37;5.40;99.90
20481;DHT22;10399;50.754;3.366;2024-03-08T06:09:09;5.30;99.90
20481;DHT22;10399;50.754;3.366;2024-03-08T06:12:08;5.20;99.90
20481;DHT22;10399;50.754;3.366;2024-03-08T06:14:47;5.40;99.90
20481;DHT22;10399;50.754;3.366;2024-03-08T06:17:14;5.10;99.90
20481;DHT22;10399;50.754;3.366;2024-03-08T06:19:51;5.00;99.90
20481;DHT22;10399;50.754;3.366;2024-03-08T06:22:22;5.10;99.90
20481;DHT22;10399;50.754;3.366;2024-03-08T06:24:57;5.00;99.90
20481;DHT22;10399;50.754;3.366;2024-03-08T06:27:27;5.10;99.90
20481;DHT22;10399;50.754;3.366;2024-03-08T06:30:00;5.10;99.90
20481;DHT22;10399;50.754;3.366;2024-03-08T06:32:27;5.00;99.90
20481;DHT22;10399;50.754;3.366;2024-03-08T06:34:57;5.10;99.90
20481;DHT22;10399;50.754;3.366;2024-03-08T06:37:24;5.20;99.90
20481;DHT22;10399;50.754;3.366;2024-03-08T06:40:04;5.20;99.90
20481;DHT22;10399;50.754;3.366;2024-03-08T06:42:32;5.20;99.90
20481;DHT22;10399;50.754;3.366;2024-03-08T06:45:04;5.30;99.90
20481;DHT22;10399;50.754;3.366;2024-03-08T06:47:36;5.30;99.90
20481;DHT22;10399;50.754;3.366;2024-03-08T06:50:07;5.30;99.90
20481;DHT22;10399;50.754;3.366;2024-03-08T06:52:40;5.40;99.90
20481;DHT22;10399;50.754;3.366;2024-03-08T06:55:11;5.30;99.90
20481;DHT22;10399;50.754;3.366;2024-03-08T06:57:42;5.40;99.90
20481;DHT22;10399;50.754;3.366;2024-03-08T07:00:12;5.40;99.90
20481;DHT22;10399;50.754;3.366;2024-03-08T07:02:48;5.60;99.90
20481;DHT22;10399;50.754;3.366;2024-03-08T07:05:18;5.60;99.90
20481;DHT22;10399;50.754;3.366;2024-03-08T07:07:45;5.60;99.90
20481;DHT22;10399;50.754;3.366;2024-03-08T07:10:18;5.60;99.90
20481;DHT22;10399;50.754;3.366;2024-03-08T07:12:46;5.50;99.90
20481;DHT22;10399;50.754;3.366;2024-03-08T07:15:16;5.50;99.90
20481;DHT22;10399;50.754;3.366;2024-03-08T07:17:48;5.60;99.90
20481;DHT22;10399;50.754;3.366;2024-03-08T07:20:19;5.70;99.90
20481;DHT22;10399;50.754;3.366;2024-03-08T07:22:46;5.70;99.90
20481;DHT22;10399;50.754;3.366;2024-03-08T07:25:22;5.90;99.90
20481;DHT22;10399;50.754;3.366;2024-03-08T07:27:54;5.90;99.90
20481;DHT22;10399;50.754;3.366;2024-03-08T07:30:26;6.00;99.90
20481;DHT22;10399;50.754;3.366;2024-03-08T07:33:15;5.90;99.90
20481;DHT22;10399;50.754;3.366;2024-03-08T07:35:51;6.10;99.90
20481;DHT22;10399;50.754;3.366;2024-03-08T07:38:21;6.20;99.90
20481;DHT22;10399;50.754;3.366;2024-03-08T07:40:48;6.30;99.90
20481;DHT22;10399;50.754;3.366;2024-03-08T07:43:22;6.20;99.90
20481;DHT22;10399;50.754;3.366;2024-03-08T07:45:49;6.40;99.90
20481;DHT22;10399;50.754;3.366;2024-03-08T07:48:21;6.50;99.90
20481;DHT22;10399;50.754;3.366;2024-03-08T07:50:53;6.60;99.90
20481;DHT22;10399;50.754;3.366;2024-03-08T07:53:21;6.70;99.90
20481;DHT22;10399;50.754;3.366;2024-03-08T07:55:48;6.80;99.90
20481;DHT22;10399;50.754;3.366;2024-03-08T07:58:15;6.90;99.90
20481;DHT22;10399;50.754;3.366;2024-03-08T08:00:47;7.00;99.90
20481;DHT22;10399;50.754;3.366;2024-03-08T08:03:22;7.20;99.90
20481;DHT22;10399;50.754;3.366;2024-03-08T08:05:59;7.10;99.90
20481;DHT22;10399;50.754;3.366;2024-03-08T08:08:28;7.10;99.90
20481;DHT22;10399;50.754;3.366;2024-03-08T08:10:58;7.20;99.90
20481;DHT22;10399;50.754;3.366;2024-03-08T08:13:29;7.40;99.90
20481;DHT22;10399;50.754;3.366;2024-03-08T08:16:04;7.50;99.90
20481;DHT22;10399;50.754;3.366;2024-03-08T08:18:35;7.60;99.90
20481;DHT22;10399;50.754;3.366;2024-03-08T08:21:03;7.80;99.90
20481;DHT22;10399;50.754;3.366;2024-03-08T08:23:45;8.00;99.90
20481;DHT22;10399;50.754;3.366;2024-03-08T08:26:15;7.90;99.90
20481;DHT22;10399;50.754;3.366;2024-03-08T08:28:42;7.90;99.90
20481;DHT22;10399;50.754;3.366;2024-03-08T08:31:10;8.10;99.90
20481;DHT22;10399;50.754;3.366;2024-03-08T08:33:37;8.30;99.90
20481;DHT22;10399;50.754;3.366;2024-03-08T08:36:04;8.50;99.90
20481;DHT22;10399;50.754;3.366;2024-03-08T08:38:32;8.60;99.90
20481;DHT22;10399;50.754;3.366;2024-03-08T08:40:59;8.70;99.90
20481;DHT22;10399;50.754;3.366;2024-03-08T08:43:26;9.00;99.90
20481;DHT22;10399;50.754;3.366;2024-03-08T08:45:53;9.10;99.90
20481;DHT22;10399;50.754;3.366;2024-03-08T08:48:22;9.40;99.90
20481;DHT22;10399;50.754;3.366;2024-03-08T08:50:49;9.30;99.90
20481;DHT22;10399;50.754;3.366;2024-03-08T08:53:17;9.20;99.90
20481;DHT22;10399;50.754;3.366;2024-03-08T08:55:45;9.20;99.90
20481;DHT22;10399;50.754;3.366;2024-03-08T08:58:14;9.30;99.90
20481;DHT22;10399;50.754;3.366;2024-03-08T09:00:42;9.30;99.90
20481;DHT22;10399;50.754;3.366;2024-03-08T09:03:10;9.60;99.90
20481;DHT22;10399;50.754;3.366;2024-03-08T09:05:39;9.60;99.90
20481;DHT22;10399;50.754;3.366;2024-03-08T09:08:07;9.30;99.90
20481;DHT22;10399;50.754;3.366;2024-03-08T09:10:35;9.30;99.90
20481;DHT22;10399;50.754;3.366;2024-03-08T09:13:04;9.50;99.90
20481;DHT22;10399;50.754;3.366;2024-03-08T09:15:31;9.50;99.90
20481;DHT22;10399;50.754;3.366;2024-03-08T09:17:58;9.40;99.90
20481;DHT22;10399;50.754;3.366;2024-03-08T09:20:26;9.50;99.90
20481;DHT22;10399;50.754;3.366;2024-03-08T09:22:53;9.40;99.90
20481;DHT22;10399;50.754;3.366;2024-03-08T09:25:21;9.30;99.90
20481;DHT22;10399;50.754;3.366;2024-03-08T09:27:49;9.30;99.90
20481;DHT22;10399;50.754;3.366;2024-03-08T09:30:30;9.50;99.90
20481;DHT22;10399;50.754;3.366;2024-03-08T09:33:12;9.90;99.90
20481;DHT22;10399;50.754;3.366;2024-03-08T09:35:40;10.00;99.90
20481;DHT22;10399;50.754;3.366;2024-03-08T09:38:21;9.80;99.90
20481;DHT22;10399;50.754;3.366;2024-03-08T09:40:48;10.10;99.90
20481;DHT22;10399;50.754;3.366;2024-03-08T09:43:15;10.00;99.90
20481;DHT22;10399;50.754;3.366;2024-03-08T09:45:57;10.00;99.90
20481;DHT22;10399;50.754;3.366;2024-03-08T09:48:25;10.20;99.90
20481;DHT22;10399;50.754;3.366;2024-03-08T09:50:56;10.40;99.90
20481;DHT22;10399;50.754;3.366;2024-03-08T09:53:23;10.70;99.90
20481;DHT22;10399;50.754;3.366;2024-03-08T09:55:50;10.70;99.90
20481;DHT22;10399;50.754;3.366;2024-03-08T09:58:19;11.00;99.90
20481;DHT22;10399;50.754;3.366;2024-03-08T10:00:46;10.90;99.90
20481;DHT22;10399;50.754;3.366;2024-03-08T10:03:14;11.00;99.90
20481;DHT22;10399;50.754;3.366;2024-03-08T10:05:42;11.50;99.90
20481;DHT22;10399;50.754;3.366;2024-03-08T10:08:13;11.80;99.90
20481;DHT22;10399;50.754;3.366;2024-03-08T10:10:40;11.80;99.90
20481;DHT22;10399;50.754;3.366;2024-03-08T10:13:09;11.80;99.90
20481;DHT22;10399;50.754;3.366;2024-03-08T10:15:37;11.80;99.90
20481;DHT22;10399;50.754;3.366;2024-03-08T10:18:06;11.60;99.90
20481;DHT22;10399;50.754;3.366;2024-03-08T10:20:34;11.90;99.90
20481;DHT22;10399;50.754;3.366;2024-03-08T10:23:02;11.60;99.90
20481;DHT22;10399;50.754;3.366;2024-03-08T10:25:37;11.60;99.90
20481;DHT22;10399;50.754;3.366;2024-03-08T10:28:05;11.50;99.90
20481;DHT22;10399;50.754;3.366;2024-03-08T10:30:33;12.00;99.90
20481;DHT22;10399;50.754;3.366;2024-03-08T10:33:00;12.30;99.90
20481;DHT22;10399;50.754;3.366;2024-03-08T10:35:28;12.60;99.90
20481;DHT22;10399;50.754;3.366;2024-03-08T10:37:56;12.80;99.90
20481;DHT22;10399;50.754;3.366;2024-03-08T10:40:28;12.90;99.90
20481;DHT22;10399;50.754;3.366;2024-03-08T10:42:57;12.60;99.90
20481;DHT22;10399;50.754;3.366;2024-03-08T10:45:35;12.40;99.90
20481;DHT22;10399;50.754;3.366;2024-03-08T10:48:31;12.60;99.90
20481;DHT22;10399;50.754;3.366;2024-03-08T10:51:04;12.50;99.90
20481;DHT22;10399;50.754;3.366;2024-03-08T10:53:33;12.90;99.90
20481;DHT22;10399;50.754;3.366;2024-03-08T10:56:01;13.00;99.90
20481;DHT22;10399;50.754;3.366;2024-03-08T10:58:29;12.90;99.90
20481;DHT22;10399;50.754;3.366;2024-03-08T11:00:56;12.80;99.90
20481;DHT22;10399;50.754;3.366;2024-03-08T11:06:08;13.00;99.90
20481;DHT22;10399;50.754;3.366;2024-03-08T11:08:36;13.20;99.90
20481;DHT22;10399;50.754;3.366;2024-03-08T11:11:04;13.30;99.90
20481;DHT22;10399;50.754;3.366;2024-03-08T11:13:41;13.20;99.90
20481;DHT22;10399;50.754;3.366;2024-03-08T11:18:58;13.30;99.90
20481;DHT22;10399;50.754;3.366;2024-03-08T11:21:32;13.10;99.90
20481;DHT22;10399;50.754;3.366;2024-03-08T11:24:13;13.10;99.90
20481;DHT22;10399;50.754;3.366;2024-03-08T11:26:41;13.10;99.90
20481;DHT22;10399;50.754;3.366;2024-03-08T11:32:16;13.30;99.90
20481;DHT22;10399;50.754;3.366;2024-03-08T11:34:49;13.10;99.90
20481;DHT22;10399;50.754;3.366;2024-03-08T11:37:18;13.30;99.90
20481;DHT22;10399;50.754;3.366;2024-03-08T11:39:49;14.10;99.90
20481;DHT22;10399;50.754;3.366;2024-03-08T11:42:18;13.90;99.90
20481;DHT22;10399;50.754;3.366;2024-03-08T11:44:46;13.90;99.90
20481;DHT22;10399;50.754;3.366;2024-03-08T11:47:15;13.50;99.90
20481;DHT22;10399;50.754;3.366;2024-03-08T11:49:43;13.30;99.90
20481;DHT22;10399;50.754;3.366;2024-03-08T11:52:12;13.60;99.90
20481;DHT22;10399;50.754;3.366;2024-03-08T11:54:48;13.50;99.90
20481;DHT22;10399;50.754;3.366;2024-03-08T11:57:18;13.70;99.90
20481;DHT22;10399;50.754;3.366;2024-03-08T11:59:55;13.80;99.90
20481;DHT22;10399;50.754;3.366;2024-03-08T12:02:34;13.90;99.90
20481;DHT22;10399;50.754;3.366;2024-03-08T12:05:05;13.80;99.90
20481;DHT22;10399;50.754;3.366;2024-03-08T12:07:39;14.00;99.90
20481;DHT22;10399;50.754;3.366;2024-03-08T12:10:16;14.30;99.90
20481;DHT22;10399;50.754;3.366;2024-03-08T12:12:48;14.80;99.90
20481;DHT22;10399;50.754;3.366;2024-03-08T12:15:16;15.20;99.90
20481;DHT22;10399;50.754;3.366;2024-03-08T12:17:45;15.30;99.90
20481;DHT22;10399;50.754;3.366;2024-03-08T12:20:23;15.80;99.90
20481;DHT22;10399;50.754;3.366;2024-03-08T12:22:53;15.80;99.90
20481;DHT22;10399;50.754;3.366;2024-03-08T12:25:20;16.00;99.90
20481;DHT22;10399;50.754;3.366;2024-03-08T12:27:48;16.00;99.90
20481;DHT22;10399;50.754;3.366;2024-03-08T12:30:22;15.70;99.90
20481;DHT22;10399;50.754;3.366;2024-03-08T12:32:54;16.00;99.90
20481;DHT22;10399;50.754;3.366;2024-03-08T12:35:25;15.90;99.90
20481;DHT22;10399;50.754;3.366;2024-03-08T12:37:54;15.70;99.90
20481;DHT22;10399;50.754;3.366;2024-03-08T12:40:32;15.50;99.90
20481;DHT22;10399;50.754;3.366;2024-03-08T12:43:01;15.50;99.90
20481;DHT22;10399;50.754;3.366;2024-03-08T12:45:29;15.70;99.90
20481;DHT22;10399;50.754;3.366;2024-03-08T12:47:56;16.10;99.90
20481;DHT22;10399;50.754;3.366;2024-03-08T12:50:24;16.50;99.90
20481;DHT22;10399;50.754;3.366;2024-03-08T12:52:53;16.20;99.90
20481;DHT22;10399;50.754;3.366;2024-03-08T12:55:20;16.00;99.90
20481;DHT22;10399;50.754;3.366;2024-03-08T12:57:48;16.40;99.90
20481;DHT22;10399;50.754;3.366;2024-03-08T13:00:16;16.10;99.90
20481;DHT22;10399;50.754;3.366;2024-03-08T13:02:50;15.90;99.90
20481;DHT22;10399;50.754;3.366;2024-03-08T13:05:18;16.60;99.90
20481;DHT22;10399;50.754;3.366;2024-03-08T13:07:47;16.70;99.90
20481;DHT22;10399;50.754;3.366;2024-03-08T13:10:14;17.30;99.90
20481;DHT22;10399;50.754;3.366;2024-03-08T13:12:45;17.10;99.90
20481;DHT22;10399;50.754;3.366;2024-03-08T13:15:26;17.00;99.90
20481;DHT22;10399;50.754;3.366;2024-03-08T13:18:07;17.20;99.90
20481;DHT22;10399;50.754;3.366;2024-03-08T13:20:35;17.70;99.90
20481;DHT22;10399;50.754;3.366;2024-03-08T13:23:14;17.80;99.90
20481;DHT22;10399;50.754;3.366;2024-03-08T13:25:41;18.10;99.90
20481;DHT22;10399;50.754;3.366;2024-03-08T13:28:09;17.60;99.90
20481;DHT22;10399;50.754;3.366;2024-03-08T13:30:38;17.40;99.90
20481;DHT22;10399;50.754;3.366;2024-03-08T13:33:05;17.40;99.90
20481;DHT22;10399;50.754;3.366;2024-03-08T13:35:34;16.90;99.90
20481;DHT22;10399;50.754;3.366;2024-03-08T13:38:01;17.20;99.90
20481;DHT22;10399;50.754;3.366;2024-03-08T13:40:31;17.10;99.90
20481;DHT22;10399;50.754;3.366;2024-03-08T13:42:59;17.10;99.90
20481;DHT22;10399;50.754;3.366;2024-03-08T13:45:28;17.00;99.90
20481;DHT22;10399;50.754;3.366;2024-03-08T13:47:55;17.10;99.90
20481;DHT22;10399;50.754;3.366;2024-03-08T13:50:23;17.40;99.90
20481;DHT22;10399;50.754;3.366;2024-03-08T13:53:04;17.80;99.90
20481;DHT22;10399;50.754;3.366;2024-03-08T13:55:36;17.90;99.90
20481;DHT22;10399;50.754;3.366;2024-03-08T13:58:03;17.70;99.90
20481;DHT22;10399;50.754;3.366;2024-03-08T14:00:30;17.40;99.90
20481;DHT22;10399;50.754;3.366;2024-03-08T14:03:02;17.00;99.90
20481;DHT22;10399;50.754;3.366;2024-03-08T14:05:32;17.00;99.90
20481;DHT22;10399;50.754;3.366;2024-03-08T14:08:02;17.30;99.90
20481;DHT22;10399;50.754;3.366;2024-03-08T14:10:30;17.70;99.90
20481;DHT22;10399;50.754;3.366;2024-03-08T14:12:58;17.60;99.90
20481;DHT22;10399;50.754;3.366;2024-03-08T14:15:25;17.80;99.90
20481;DHT22;10399;50.754;3.366;2024-03-08T14:18:07;17.90;99.90
20481;DHT22;10399;50.754;3.366;2024-03-08T14:20:34;17.90;99.90
20481;DHT22;10399;50.754;3.366;2024-03-08T14:23:03;17.70;99.90
20481;DHT22;10399;50.754;3.366;2024-03-08T14:25:33;17.70;99.90
20481;DHT22;10399;50.754;3.366;2024-03-08T14:28:01;17.80;99.90
20481;DHT22;10399;50.754;3.366;2024-03-08T14:30:34;17.50;99.90
20481;DHT22;10399;50.754;3.366;2024-03-08T14:33:03;17.60;99.90
20481;DHT22;10399;50.754;3.366;2024-03-08T14:35:32;17.90;99.90
20481;DHT22;10399;50.754;3.366;2024-03-08T14:37:59;17.80;99.90
20481;DHT22;10399;50.754;3.366;2024-03-08T14:40:27;17.90;99.90
20481;DHT22;10399;50.754;3.366;2024-03-08T14:42:54;17.60;99.90
20481;DHT22;10399;50.754;3.366;2024-03-08T14:45:23;17.70;99.90
20481;DHT22;10399;50.754;3.366;2024-03-08T14:47:50;17.90;99.90
20481;DHT22;10399;50.754;3.366;2024-03-08T14:50:19;17.70;99.90
20481;DHT22;10399;50.754;3.366;2024-03-08T14:52:46;17.80;99.90
20481;DHT22;10399;50.754;3.366;2024-03-08T14:55:20;17.90;99.90
20481;DHT22;10399;50.754;3.366;2024-03-08T14:57:49;17.80;99.90
20481;DHT22;10399;50.754;3.366;2024-03-08T15:00:19;17.70;99.90
20481;DHT22;10399;50.754;3.366;2024-03-08T15:03:02;17.70;99.90
20481;DHT22;10399;50.754;3.366;2024-03-08T15:05:33;17.90;99.90
20481;DHT22;10399;50.754;3.366;2024-03-08T15:08:05;18.20;99.90
20481;DHT22;10399;50.754;3.366;2024-03-08T15:10:38;18.10;99.90
20481;DHT22;10399;50.754;3.366;2024-03-08T15:13:08;18.10;99.90
20481;DHT22;10399;50.754;3.366;2024-03-08T15:15:42;18.30;99.90
20481;DHT22;10399;50.754;3.366;2024-03-08T15:18:12;18.10;99.90
20481;DHT22;10399;50.754;3.366;2024-03-08T15:20:39;17.90;99.90
20481;DHT22;10399;50.754;3.366;2024-03-08T15:23:07;17.70;99.90
20481;DHT22;10399;50.754;3.366;2024-03-08T15:25:36;17.60;99.90
20481;DHT22;10399;50.754;3.366;2024-03-08T15:28:05;17.60;99.90
20481;DHT22;10399;50.754;3.366;2024-03-08T15:30:40;17.40;99.90
20481;DHT22;10399;50.754;3.366;2024-03-08T15:33:11;17.20;99.90
20481;DHT22;10399;50.754;3.366;2024-03-08T15:35:39;17.10;99.90
20481;DHT22;10399;50.754;3.366;2024-03-08T15:38:06;17.10;99.90
20481;DHT22;10399;50.754;3.366;2024-03-08T15:40:34;16.90;99.90
20481;DHT22;10399;50.754;3.366;2024-03-08T15:43:02;16.80;99.90
20481;DHT22;10399;50.754;3.366;2024-03-08T15:45:30;16.50;99.90
20481;DHT22;10399;50.754;3.366;2024-03-08T15:47:58;16.40;99.90
20481;DHT22;10399;50.754;3.366;2024-03-08T15:50:25;16.40;99.90
20481;DHT22;10399;50.754;3.366;2024-03-08T15:52:52;16.20;99.90
20481;DHT22;10399;50.754;3.366;2024-03-08T15:55:22;15.90;99.90
20481;DHT22;10399;50.754;3.366;2024-03-08T15:57:51;15.90;99.90
20481;DHT22;10399;50.754;3.366;2024-03-08T16:00:19;15.80;99.90
20481;DHT22;10399;50.754;3.366;2024-03-08T16:03:13;15.80;99.90